sensor_id;sensor_type;location;lat;lon;timestamp;temperature;humidity
41344;DHT22;27089;50.022;7.604;2022-09-01T00:00:44;14.00;99.90
41344;DHT22;27089;50.022;7.604;2022-09-01T00:03:12;14.00;99.90
41344;DHT22;27089;50.022;7.604;2022-09-01T00:05:39;14.10;99.90
41344;DHT22;27089;50.022;7.604;2022-09-01T00:08:06;14.10;99.90
41344;DHT22;27089;50.022;7.604;2022-09-01T00:10:33;14.20;99.90
41344;DHT22;27089;50.022;7.604;2022-09-01T00:13:02;14.30;99.90
41344;DHT22;27089;50.022;7.604;2022-09-01T00:15:31;14.30;99.90
41344;DHT22;27089;50.022;7.604;2022-09-01T00:17:58;14.40;99.90
41344;DHT22;27089;50.022;7.604;2022-09-01T00:20:26;14.40;99.90
41344;DHT22;27089;50.022;7.604;2022-09-01T00:22:53;14.40;99.90
41344;DHT22;27089;50.022;7.604;2022-09-01T00:25:20;14.40;99.90
41344;DHT22;27089;50.022;7.604;2022-09-01T00:27:48;14.40;99.90
41344;DHT22;27089;50.022;7.604;2022-09-01T00:30:18;14.40;99.90
41344;DHT22;27089;50.022;7.604;2022-09-01T00:32:46;14.40;99.90
41344;DHT22;27089;50.022;7.604;2022-09-01T00:35:13;14.30;99.90
41344;DHT22;27089;50.022;7.604;2022-09-01T00:37:41;14.30;99.90
41344;DHT22;27089;50.022;7.604;2022-09-01T00:40:10;14.20;99.90
41344;DHT22;27089;50.022;7.604;2022-09-01T00:42:38;14.20;99.90
41344;DHT22;27089;50.022;7.604;2022-09-01T00:45:06;13.90;99.90
41344;DHT22;27089;50.022;7.604;2022-09-01T00:47:36;13.70;99.90
41344;DHT22;27089;50.022;7.604;2022-09-01T00:50:06;13.50;99.90
41344;DHT22;27089;50.022;7.604;2022-09-01T00:52:35;13.50;99.90
41344;DHT22;27089;50.022;7.604;2022-09-01T00:55:08;13.50;99.90
41344;DHT22;27089;50.022;7.604;2022-09-01T00:57:36;13.60;99.90
41344;DHT22;27089;50.022;7.604;2022-09-01T01:00:07;13.70;99.90
41344;DHT22;27089;50.022;7.604;2022-09-01T01:02:38;13.80;99.90
41344;DHT22;27089;50.022;7.604;2022-09-01T01:05:06;13.90;99.90
41344;DHT22;27089;50.022;7.604;2022-09-01T01:07:34;14.00;99.90
41344;DHT22;27089;50.022;7.604;2022-09-01T01:10:04;14.10;99.90
41344;DHT22;27089;50.022;7.604;2022-09-01T01:12:32;14.10;99.90
41344;DHT22;27089;50.022;7.604;2022-09-01T01:15:03;14.10;99.90
41344;DHT22;27089;50.022;7.604;2022-09-01T01:17:31;14.00;99.90
41344;DHT22;27089;50.022;7.604;2022-09-01T01:20:00;14.00;99.90
41344;DHT22;27089;50.022;7.604;2022-09-01T01:22:52;13.90;99.90
41344;DHT22;27089;50.022;7.604;2022-09-01T01:25:36;13.90;99.90
41344;DHT22;27089;50.022;7.604;2022-09-01T01:28:06;13.90;99.90
41344;DHT22;27089;50.022;7.604;2022-09-01T01:30:34;13.90;99.90
41344;DHT22;27089;50.022;7.604;2022-09-01T01:33:02;13.80;99.90
41344;DHT22;27089;50.022;7.604;2022-09-01T01:35:29;13.80;99.90
41344;DHT22;27089;50.022;7.604;2022-09-01T01:37:59;13.80;99.90
41344;DHT22;27089;50.022;7.604;2022-09-01T01:40:27;13.70;99.90
41344;DHT22;27089;50.022;7.604;2022-09-01T01:42:56;13.60;99.90
41344;DHT22;27089;50.022;7.604;2022-09-01T01:45:26;13.70;99.90
41344;DHT22;27089;50.022;7.604;2022-09-01T01:47:54;13.70;99.90
41344;DHT22;27089;50.022;7.604;2022-09-01T01:50:23;13.70;99.90
41344;DHT22;27089;50.022;7.604;2022-09-01T01:52:51;13.60;99.90
41344;DHT22;27089;50.022;7.604;2022-09-01T01:55:19;13.60;99.90
41344;DHT22;27089;50.022;7.604;2022-09-01T01:57:49;13.60;99.90
41344;DHT22;27089;50.022;7.604;2022-09-01T02:00:21;13.50;99.90
41344;DHT22;27089;50.022;7.604;2022-09-01T02:02:50;13.50;99.90
41344;DHT22;27089;50.022;7.604;2022-09-01T02:05:22;13.50;99.90
41344;DHT22;27089;50.022;7.604;2022-09-01T02:07:53;13.50;99.90
41344;DHT22;27089;50.022;7.604;2022-09-01T02:10:26;13.50;99.90
41344;DHT22;27089;50.022;7.604;2022-09-01T02:12:55;13.50;99.90
41344;DHT22;27089;50.022;7.604;2022-09-01T02:15:31;13.50;99.90
41344;DHT22;27089;50.022;7.604;2022-09-01T02:18:03;13.50;99.90
41344;DHT22;27089;50.022;7.604;2022-09-01T02:20:30;13.50;99.90
41344;DHT22;27089;50.022;7.604;2022-09-01T02:22:58;13.50;99.90
41344;DHT22;27089;50.022;7.604;2022-09-01T02:25:25;13.40;99.90
41344;DHT22;27089;50.022;7.604;2022-09-01T02:27:53;13.40;99.90
41344;DHT22;27089;50.022;7.604;2022-09-01T02:30:20;13.40;99.90
41344;DHT22;27089;50.022;7.604;2022-09-01T02:32:50;13.40;99.90
41344;DHT22;27089;50.022;7.604;2022-09-01T02:35:17;13.40;99.90
41344;DHT22;27089;50.022;7.604;2022-09-01T02:37:44;13.40;99.90
41344;DHT22;27089;50.022;7.604;2022-09-01T02:40:14;13.40;99.90
41344;DHT22;27089;50.022;7.604;2022-09-01T02:42:41;13.40;99.90
41344;DHT22;27089;50.022;7.604;2022-09-01T02:45:11;13.40;99.90
41344;DHT22;27089;50.022;7.604;2022-09-01T02:47:41;13.40;99.90
41344;DHT22;27089;50.022;7.604;2022-09-01T02:50:13;13.40;99.90
41344;DHT22;27089;50.022;7.604;2022-09-01T02:52:42;13.40;99.90
41344;DHT22;27089;50.022;7.604;2022-09-01T02:55:10;13.40;99.90
41344;DHT22;27089;50.022;7.604;2022-09-01T02:57:37;13.30;99.90
41344;DHT22;27089;50.022;7.604;2022-09-01T03:00:07;13.30;99.90
41344;DHT22;27089;50.022;7.604;2022-09-01T03:02:47;13.20;99.90
41344;DHT22;27089;50.022;7.604;2022-09-01T03:05:18;13.20;99.90
41344;DHT22;27089;50.022;7.604;2022-09-01T03:07:51;13.20;99.90
41344;DHT22;27089;50.022;7.604;2022-09-01T03:10:23;13.20;99.90
41344;DHT22;27089;50.022;7.604;2022-09-01T03:12:58;13.30;99.90
41344;DHT22;27089;50.022;7.604;2022-09-01T03:15:27;13.30;99.90
41344;DHT22;27089;50.022;7.604;2022-09-01T03:17:53;13.30;99.90
41344;DHT22;27089;50.022;7.604;2022-09-01T03:20:22;13.30;99.90
41344;DHT22;27089;50.022;7.604;2022-09-01T03:22:49;13.30;99.90
41344;DHT22;27089;50.022;7.604;2022-09-01T03:25:18;13.20;99.90
41344;DHT22;27089;50.022;7.604;2022-09-01T03:27:45;13.20;99.90
41344;DHT22;27089;50.022;7.604;2022-09-01T03:30:13;13.20;99.90
41344;DHT22;27089;50.022;7.604;2022-09-01T03:32:41;13.10;99.90
41344;DHT22;27089;50.022;7.604;2022-09-01T03:35:08;13.10;99.90
41344;DHT22;27089;50.022;7.604;2022-09-01T03:37:37;13.20;99.90
41344;DHT22;27089;50.022;7.604;2022-09-01T03:40:10;13.20;99.90
41344;DHT22;27089;50.022;7.604;2022-09-01T03:42:38;13.20;99.90
41344;DHT22;27089;50.022;7.604;2022-09-01T03:45:06;13.20;99.90
41344;DHT22;27089;50.022;7.604;2022-09-01T03:47:38;13.20;99.90
41344;DHT22;27089;50.022;7.604;2022-09-01T03:50:08;13.10;99.90
41344;DHT22;27089;50.022;7.604;2022-09-01T03:52:43;13.10;99.90
41344;DHT22;27089;50.022;7.604;2022-09-01T03:55:10;13.10;99.90
41344;DHT22;27089;50.022;7.604;2022-09-01T03:57:38;13.10;99.90
41344;DHT22;27089;50.022;7.604;2022-09-01T04:00:08;13.10;99.90
41344;DHT22;27089;50.022;7.604;2022-09-01T04:02:45;13.00;99.90
41344;DHT22;27089;50.022;7.604;2022-09-01T04:05:15;13.00;99.90
41344;DHT22;27089;50.022;7.604;2022-09-01T04:07:44;13.00;99.90
41344;DHT22;27089;50.022;7.604;2022-09-01T04:10:11;12.90;99.90
41344;DHT22;27089;50.022;7.604;2022-09-01T04:12:38;12.90;99.90
41344;DHT22;27089;50.022;7.604;2022-09-01T04:15:06;12.90;99.90
41344;DHT22;27089;50.022;7.604;2022-09-01T04:17:33;12.80;99.90
41344;DHT22;27089;50.022;7.604;2022-09-01T04:20:18;12.80;99.90
41344;DHT22;27089;50.022;7.604;2022-09-01T04:22:48;12.80;99.90
41344;DHT22;27089;50.022;7.604;2022-09-01T04:25:16;12.80;99.90
41344;DHT22;27089;50.022;7.604;2022-09-01T04:27:48;12.80;99.90
41344;DHT22;27089;50.022;7.604;2022-09-01T04:30:15;12.70;99.90
41344;DHT22;27089;50.022;7.604;2022-09-01T04:32:42;12.60;99.90
41344;DHT22;27089;50.022;7.604;2022-09-01T04:35:12;12.60;99.90
41344;DHT22;27089;50.022;7.604;2022-09-01T04:37:42;12.60;99.90
41344;DHT22;27089;50.022;7.604;2022-09-01T04:40:13;12.60;99.90
41344;DHT22;27089;50.022;7.604;2022-09-01T04:42:43;12.60;99.90
41344;DHT22;27089;50.022;7.604;2022-09-01T04:45:10;12.60;99.90
41344;DHT22;27089;50.022;7.604;2022-09-01T04:47:38;12.70;99.90
41344;DHT22;27089;50.022;7.604;2022-09-01T04:50:08;12.70;99.90
41344;DHT22;27089;50.022;7.604;2022-09-01T04:52:39;12.70;99.90
41344;DHT22;27089;50.022;7.604;2022-09-01T04:55:07;12.60;99.90
41344;DHT22;27089;50.022;7.604;2022-09-01T04:57:44;12.60;99.90
41344;DHT22;27089;50.022;7.604;2022-09-01T05:00:14;12.60;99.90
41344;DHT22;27089;50.022;7.604;2022-09-01T05:02:48;12.60;99.90
41344;DHT22;27089;50.022;7.604;2022-09-01T05:05:17;12.60;99.90
41344;DHT22;27089;50.022;7.604;2022-09-01T05:07:44;12.50;99.90
41344;DHT22;27089;50.022;7.604;2022-09-01T05:10:11;12.50;99.90
41344;DHT22;27089;50.022;7.604;2022-09-01T05:12:38;12.60;99.90
41344;DHT22;27089;50.022;7.604;2022-09-01T05:15:08;12.60;99.90
41344;DHT22;27089;50.022;7.604;2022-09-01T05:17:35;12.60;99.90
41344;DHT22;27089;50.022;7.604;2022-09-01T05:20:04;12.60;99.90
41344;DHT22;27089;50.022;7.604;2022-09-01T05:22:31;12.60;99.90
41344;DHT22;27089;50.022;7.604;2022-09-01T05:24:59;12.60;99.90
41344;DHT22;27089;50.022;7.604;2022-09-01T05:27:38;12.70;99.90
41344;DHT22;27089;50.022;7.604;2022-09-01T05:30:08;12.80;99.90
41344;DHT22;27089;50.022;7.604;2022-09-01T05:32:36;12.90;99.90
41344;DHT22;27089;50.022;7.604;2022-09-01T05:35:05;13.00;99.90
41344;DHT22;27089;50.022;7.604;2022-09-01T05:37:34;13.10;99.90
41344;DHT22;27089;50.022;7.604;2022-09-01T05:40:05;13.20;99.90
41344;DHT22;27089;50.022;7.604;2022-09-01T05:42:34;13.20;99.90
41344;DHT22;27089;50.022;7.604;2022-09-01T05:45:04;13.30;99.90
41344;DHT22;27089;50.022;7.604;2022-09-01T05:47:34;13.40;99.90
41344;DHT22;27089;50.022;7.604;2022-09-01T05:50:01;13.50;99.90
41344;DHT22;27089;50.022;7.604;2022-09-01T05:52:29;13.60;99.90
41344;DHT22;27089;50.022;7.604;2022-09-01T05:54:59;13.70;99.90
41344;DHT22;27089;50.022;7.604;2022-09-01T05:57:26;13.80;99.90
41344;DHT22;27089;50.022;7.604;2022-09-01T05:59:53;14.10;99.90
41344;DHT22;27089;50.022;7.604;2022-09-01T06:02:21;14.20;99.90
41344;DHT22;27089;50.022;7.604;2022-09-01T06:04:49;14.30;99.90
41344;DHT22;27089;50.022;7.604;2022-09-01T06:07:21;14.30;99.90
41344;DHT22;27089;50.022;7.604;2022-09-01T06:09:49;14.40;99.90
41344;DHT22;27089;50.022;7.604;2022-09-01T06:12:18;14.40;99.90
41344;DHT22;27089;50.022;7.604;2022-09-01T06:14:49;14.50;99.90
41344;DHT22;27089;50.022;7.604;2022-09-01T06:17:18;14.70;99.90
41344;DHT22;27089;50.022;7.604;2022-09-01T06:19:50;14.80;99.90
41344;DHT22;27089;50.022;7.604;2022-09-01T06:22:20;14.90;99.90
41344;DHT22;27089;50.022;7.604;2022-09-01T06:24:48;15.10;99.90
41344;DHT22;27089;50.022;7.604;2022-09-01T06:27:16;15.40;99.90
41344;DHT22;27089;50.022;7.604;2022-09-01T06:29:45;15.70;99.90
41344;DHT22;27089;50.022;7.604;2022-09-01T06:32:14;15.70;99.90
41344;DHT22;27089;50.022;7.604;2022-09-01T06:34:42;15.90;99.90
41344;DHT22;27089;50.022;7.604;2022-09-01T06:37:11;15.90;99.90
41344;DHT22;27089;50.022;7.604;2022-09-01T06:39:39;15.70;99.90
41344;DHT22;27089;50.022;7.604;2022-09-01T06:42:06;15.70;99.90
41344;DHT22;27089;50.022;7.604;2022-09-01T06:44:34;15.70;99.90
41344;DHT22;27089;50.022;7.604;2022-09-01T06:47:01;15.70;99.90
41344;DHT22;27089;50.022;7.604;2022-09-01T06:49:29;15.80;99.90
41344;DHT22;27089;50.022;7.604;2022-09-01T06:51:59;15.80;99.90
41344;DHT22;27089;50.022;7.604;2022-09-01T06:54:28;15.80;99.90
41344;DHT22;27089;50.022;7.604;2022-09-01T06:56:59;15.90;99.90
41344;DHT22;27089;50.022;7.604;2022-09-01T06:59:28;15.90;99.90
41344;DHT22;27089;50.022;7.604;2022-09-01T07:01:56;16.10;99.90
41344;DHT22;27089;50.022;7.604;2022-09-01T07:04:26;16.00;99.90
41344;DHT22;27089;50.022;7.604;2022-09-01T07:06:54;16.70;99.90
41344;DHT22;27089;50.022;7.604;2022-09-01T07:09:22;18.00;99.90
41344;DHT22;27089;50.022;7.604;2022-09-01T07:11:50;18.40;99.90
41344;DHT22;27089;50.022;7.604;2022-09-01T07:14:20;17.90;99.90
41344;DHT22;27089;50.022;7.604;2022-09-01T07:16:47;17.40;99.90
41344;DHT22;27089;50.022;7.604;2022-09-01T07:19:15;17.10;99.90
41344;DHT22;27089;50.022;7.604;2022-09-01T07:21:43;17.20;99.90
41344;DHT22;27089;50.022;7.604;2022-09-01T07:24:11;16.90;99.90
41344;DHT22;27089;50.022;7.604;2022-09-01T07:26:41;16.70;99.90
41344;DHT22;27089;50.022;7.604;2022-09-01T07:29:09;16.70;99.90
41344;DHT22;27089;50.022;7.604;2022-09-01T07:31:38;16.80;99.90
41344;DHT22;27089;50.022;7.604;2022-09-01T07:34:10;16.90;99.90
41344;DHT22;27089;50.022;7.604;2022-09-01T07:36:39;17.00;99.90
41344;DHT22;27089;50.022;7.604;2022-09-01T07:39:07;17.00;99.90
41344;DHT22;27089;50.022;7.604;2022-09-01T07:41:35;17.20;99.90
41344;DHT22;27089;50.022;7.604;2022-09-01T07:44:04;17.30;99.90
41344;DHT22;27089;50.022;7.604;2022-09-01T07:46:36;17.40;99.90
41344;DHT22;27089;50.022;7.604;2022-09-01T07:49:03;17.50;99.90
41344;DHT22;27089;50.022;7.604;2022-09-01T07:51:30;17.60;99.90
41344;DHT22;27089;50.022;7.604;2022-09-01T07:53:58;17.70;99.90
41344;DHT22;27089;50.022;7.604;2022-09-01T07:56:27;17.90;99.90
41344;DHT22;27089;50.022;7.604;2022-09-01T07:58:56;18.00;99.90
41344;DHT22;27089;50.022;7.604;2022-09-01T08:01:25;18.10;99.90
41344;DHT22;27089;50.022;7.604;2022-09-01T08:03:56;18.20;99.90
41344;DHT22;27089;50.022;7.604;2022-09-01T08:06:25;18.20;99.90
41344;DHT22;27089;50.022;7.604;2022-09-01T08:08:54;17.90;99.90
41344;DHT22;27089;50.022;7.604;2022-09-01T08:11:24;17.80;99.90
41344;DHT22;27089;50.022;7.604;2022-09-01T08:13:53;17.60;99.90
41344;DHT22;27089;50.022;7.604;2022-09-01T08:16:23;17.50;99.90
41344;DHT22;27089;50.022;7.604;2022-09-01T08:18:50;17.50;99.90
41344;DHT22;27089;50.022;7.604;2022-09-01T08:21:20;17.60;99.90
41344;DHT22;27089;50.022;7.604;2022-09-01T08:23:48;17.70;99.90
41344;DHT22;27089;50.022;7.604;2022-09-01T08:26:17;17.80;99.90
41344;DHT22;27089;50.022;7.604;2022-09-01T08:28:46;17.80;99.90
41344;DHT22;27089;50.022;7.604;2022-09-01T08:31:15;18.00;99.90
41344;DHT22;27089;50.022;7.604;2022-09-01T08:33:44;18.10;99.90
41344;DHT22;27089;50.022;7.604;2022-09-01T08:36:13;18.00;99.90
41344;DHT22;27089;50.022;7.604;2022-09-01T08:38:42;18.00;99.90
41344;DHT22;27089;50.022;7.604;2022-09-01T08:41:15;18.10;99.90
41344;DHT22;27089;50.022;7.604;2022-09-01T08:43:51;18.10;99.90
41344;DHT22;27089;50.022;7.604;2022-09-01T08:46:24;18.10;99.90
41344;DHT22;27089;50.022;7.604;2022-09-01T08:48:54;18.70;99.90
41344;DHT22;27089;50.022;7.604;2022-09-01T08:51:26;19.20;99.90
41344;DHT22;27089;50.022;7.604;2022-09-01T08:54:05;19.30;99.90
41344;DHT22;27089;50.022;7.604;2022-09-01T08:56:36;19.50;99.90
41344;DHT22;27089;50.022;7.604;2022-09-01T08:59:06;20.00;99.90
41344;DHT22;27089;50.022;7.604;2022-09-01T09:01:40;19.90;99.90
41344;DHT22;27089;50.022;7.604;2022-09-01T09:04:18;19.50;99.90
41344;DHT22;27089;50.022;7.604;2022-09-01T09:06:51;19.10;99.90
41344;DHT22;27089;50.022;7.604;2022-09-01T09:09:29;18.90;99.90
41344;DHT22;27089;50.022;7.604;2022-09-01T09:12:19;18.60;99.90
41344;DHT22;27089;50.022;7.604;2022-09-01T09:14:58;18.80;99.90
41344;DHT22;27089;50.022;7.604;2022-09-01T09:17:31;19.20;99.90
41344;DHT22;27089;50.022;7.604;2022-09-01T09:20:01;19.20;99.90
41344;DHT22;27089;50.022;7.604;2022-09-01T09:22:30;19.50;99.90
41344;DHT22;27089;50.022;7.604;2022-09-01T09:25:02;20.00;99.90
41344;DHT22;27089;50.022;7.604;2022-09-01T09:27:33;20.50;99.90
41344;DHT22;27089;50.022;7.604;2022-09-01T09:30:03;21.00;99.90
41344;DHT22;27089;50.022;7.604;2022-09-01T09:32:44;21.60;99.90
41344;DHT22;27089;50.022;7.604;2022-09-01T09:35:33;22.30;99.90
41344;DHT22;27089;50.022;7.604;2022-09-01T09:38:15;22.70;99.90
41344;DHT22;27089;50.022;7.604;2022-09-01T09:41:03;22.80;99.90
41344;DHT22;27089;50.022;7.604;2022-09-01T09:43:35;23.00;99.90
41344;DHT22;27089;50.022;7.604;2022-09-01T09:46:22;23.40;99.90
41344;DHT22;27089;50.022;7.604;2022-09-01T09:49:06;23.80;99.90
41344;DHT22;27089;50.022;7.604;2022-09-01T09:51:34;23.50;99.90
41344;DHT22;27089;50.022;7.604;2022-09-01T09:54:12;23.50;99.90
41344;DHT22;27089;50.022;7.604;2022-09-01T09:56:42;23.80;99.90
41344;DHT22;27089;50.022;7.604;2022-09-01T09:59:21;23.80;99.90
41344;DHT22;27089;50.022;7.604;2022-09-01T10:01:49;24.10;99.90
41344;DHT22;27089;50.022;7.604;2022-09-01T10:04:32;24.00;99.90
41344;DHT22;27089;50.022;7.604;2022-09-01T10:07:00;23.40;99.90
41344;DHT22;27089;50.022;7.604;2022-09-01T10:09:36;22.90;99.90
41344;DHT22;27089;50.022;7.604;2022-09-01T10:12:05;22.60;99.90
41344;DHT22;27089;50.022;7.604;2022-09-01T10:14:39;22.30;99.90
41344;DHT22;27089;50.022;7.604;2022-09-01T10:17:11;22.50;99.90
41344;DHT22;27089;50.022;7.604;2022-09-01T10:19:45;22.00;99.90
41344;DHT22;27089;50.022;7.604;2022-09-01T10:22:13;21.80;99.90
41344;DHT22;27089;50.022;7.604;2022-09-01T10:24:40;21.50;99.90
41344;DHT22;27089;50.022;7.604;2022-09-01T10:27:11;21.30;99.90
41344;DHT22;27089;50.022;7.604;2022-09-01T10:29:45;21.20;99.90
41344;DHT22;27089;50.022;7.604;2022-09-01T10:32:18;21.00;99.90
41344;DHT22;27089;50.022;7.604;2022-09-01T10:34:46;20.80;99.90
41344;DHT22;27089;50.022;7.604;2022-09-01T10:37:15;20.60;99.90
41344;DHT22;27089;50.022;7.604;2022-09-01T10:40:08;20.60;99.90
41344;DHT22;27089;50.022;7.604;2022-09-01T10:42:38;20.50;99.90
41344;DHT22;27089;50.022;7.604;2022-09-01T10:45:15;20.50;99.90
41344;DHT22;27089;50.022;7.604;2022-09-01T10:47:43;20.70;99.90
41344;DHT22;27089;50.022;7.604;2022-09-01T10:50:23;20.90;99.90
41344;DHT22;27089;50.022;7.604;2022-09-01T10:52:59;21.00;99.90
41344;DHT22;27089;50.022;7.604;2022-09-01T10:55:44;21.00;99.90
41344;DHT22;27089;50.022;7.604;2022-09-01T10:58:35;21.10;99.90
41344;DHT22;27089;50.022;7.604;2022-09-01T11:01:05;21.20;99.90
41344;DHT22;27089;50.022;7.604;2022-09-01T11:03:50;21.20;99.90
41344;DHT22;27089;50.022;7.604;2022-09-01T11:09:30;21.50;99.90
41344;DHT22;27089;50.022;7.604;2022-09-01T11:12:27;21.50;99.90
41344;DHT22;27089;50.022;7.604;2022-09-01T11:15:01;21.40;99.90
41344;DHT22;27089;50.022;7.604;2022-09-01T11:17:30;21.40;99.90
41344;DHT22;27089;50.022;7.604;2022-09-01T11:20:02;21.50;99.90
41344;DHT22;27089;50.022;7.604;2022-09-01T11:22:35;21.60;99.90
41344;DHT22;27089;50.022;7.604;2022-09-01T11:28:04;21.50;99.90
41344;DHT22;27089;50.022;7.604;2022-09-01T11:30:37;21.40;99.90
41344;DHT22;27089;50.022;7.604;2022-09-01T11:33:15;21.40;99.90
41344;DHT22;27089;50.022;7.604;2022-09-01T11:35:47;21.70;99.90
41344;DHT22;27089;50.022;7.604;2022-09-01T11:38:23;21.90;99.90
41344;DHT22;27089;50.022;7.604;2022-09-01T11:40:54;22.10;99.90
41344;DHT22;27089;50.022;7.604;2022-09-01T11:43:22;22.30;99.90
41344;DHT22;27089;50.022;7.604;2022-09-01T11:46:01;22.30;99.90
41344;DHT22;27089;50.022;7.604;2022-09-01T11:48:29;22.20;99.90
41344;DHT22;27089;50.022;7.604;2022-09-01T11:50:58;22.30;99.90
41344;DHT22;27089;50.022;7.604;2022-09-01T11:53:26;22.20;99.90
41344;DHT22;27089;50.022;7.604;2022-09-01T11:55:55;22.20;99.90
41344;DHT22;27089;50.022;7.604;2022-09-01T11:58:32;22.20;99.90
41344;DHT22;27089;50.022;7.604;2022-09-01T12:01:19;22.20;99.90
41344;DHT22;27089;50.022;7.604;2022-09-01T12:03:47;22.30;99.90
41344;DHT22;27089;50.022;7.604;2022-09-01T12:06:20;22.50;99.90
41344;DHT22;27089;50.022;7.604;2022-09-01T12:08:54;22.50;99.90
41344;DHT22;27089;50.022;7.604;2022-09-01T12:11:23;22.50;99.90
41344;DHT22;27089;50.022;7.604;2022-09-01T12:13:56;22.50;99.90
41344;DHT22;27089;50.022;7.604;2022-09-01T12:16:25;22.60;99.90
41344;DHT22;27089;50.022;7.604;2022-09-01T12:18:55;22.80;99.90
41344;DHT22;27089;50.022;7.604;2022-09-01T12:21:25;22.70;99.90
41344;DHT22;27089;50.022;7.604;2022-09-01T12:23:53;22.50;99.90
41344;DHT22;27089;50.022;7.604;2022-09-01T12:26:23;22.50;99.90
41344;DHT22;27089;50.022;7.604;2022-09-01T12:28:51;22.30;99.90
41344;DHT22;27089;50.022;7.604;2022-09-01T12:31:22;21.90;99.90
41344;DHT22;27089;50.022;7.604;2022-09-01T12:33:52;21.60;99.90
41344;DHT22;27089;50.022;7.604;2022-09-01T12:36:22;21.70;99.90
41344;DHT22;27089;50.022;7.604;2022-09-01T12:38:51;22.10;99.90
41344;DHT22;27089;50.022;7.604;2022-09-01T12:41:39;22.20;99.90
41344;DHT22;27089;50.022;7.604;2022-09-01T12:44:27;22.50;99.90
41344;DHT22;27089;50.022;7.604;2022-09-01T12:46:55;22.50;99.90
41344;DHT22;27089;50.022;7.604;2022-09-01T12:49:32;22.50;99.90
41344;DHT22;27089;50.022;7.604;2022-09-01T12:52:16;22.60;99.90
41344;DHT22;27089;50.022;7.604;2022-09-01T12:54:48;22.40;99.90
41344;DHT22;27089;50.022;7.604;2022-09-01T12:57:25;22.30;99.90
41344;DHT22;27089;50.022;7.604;2022-09-01T13:00:15;22.00;99.90
41344;DHT22;27089;50.022;7.604;2022-09-01T13:02:45;21.80;99.90
41344;DHT22;27089;50.022;7.604;2022-09-01T13:05:24;21.80;99.90
41344;DHT22;27089;50.022;7.604;2022-09-01T13:07:52;22.10;99.90
41344;DHT22;27089;50.022;7.604;2022-09-01T13:10:20;22.30;99.90
41344;DHT22;27089;50.022;7.604;2022-09-01T13:12:48;22.50;99.90
41344;DHT22;27089;50.022;7.604;2022-09-01T13:15:16;22.60;99.90
41344;DHT22;27089;50.022;7.604;2022-09-01T13:17:43;22.80;99.90
41344;DHT22;27089;50.022;7.604;2022-09-01T13:20:10;23.00;99.90
41344;DHT22;27089;50.022;7.604;2022-09-01T13:22:39;23.40;99.90
41344;DHT22;27089;50.022;7.604;2022-09-01T13:25:07;23.50;99.90
41344;DHT22;27089;50.022;7.604;2022-09-01T13:27:35;23.50;99.90
41344;DHT22;27089;50.022;7.604;2022-09-01T13:30:04;23.30;99.90
41344;DHT22;27089;50.022;7.604;2022-09-01T13:32:31;23.30;99.90
41344;DHT22;27089;50.022;7.604;2022-09-01T13:34:58;23.40;99.90
41344;DHT22;27089;50.022;7.604;2022-09-01T13:37:25;23.50;99.90
41344;DHT22;27089;50.022;7.604;2022-09-01T13:39:53;23.50;99.90
41344;DHT22;27089;50.022;7.604;2022-09-01T13:42:20;23.30;99.90
41344;DHT22;27089;50.022;7.604;2022-09-01T13:44:47;23.40;99.90
41344;DHT22;27089;50.022;7.604;2022-09-01T13:47:15;23.50;99.90
41344;DHT22;27089;50.022;7.604;2022-09-01T13:49:42;23.60;99.90
41344;DHT22;27089;50.022;7.604;2022-09-01T13:52:09;23.70;99.90
41344;DHT22;27089;50.022;7.604;2022-09-01T13:54:37;23.80;99.90
41344;DHT22;27089;50.022;7.604;2022-09-01T13:57:06;23.90;99.90
41344;DHT22;27089;50.022;7.604;2022-09-01T13:59:33;23.80;99.90
41344;DHT22;27089;50.022;7.604;2022-09-01T14:02:00;23.40;99.90
41344;DHT22;27089;50.022;7.604;2022-09-01T14:04:27;23.20;99.90
41344;DHT22;27089;50.022;7.604;2022-09-01T14:06:54;23.20;99.90
41344;DHT22;27089;50.022;7.604;2022-09-01T14:09:21;23.30;99.90
41344;DHT22;27089;50.022;7.604;2022-09-01T14:11:51;23.50;99.90
41344;DHT22;27089;50.022;7.604;2022-09-01T14:14:20;23.40;99.90
41344;DHT22;27089;50.022;7.604;2022-09-01T14:16:47;23.40;99.90
41344;DHT22;27089;50.022;7.604;2022-09-01T14:19:14;23.30;99.90
41344;DHT22;27089;50.022;7.604;2022-09-01T14:21:41;23.20;99.90
41344;DHT22;27089;50.022;7.604;2022-09-01T14:24:08;23.30;99.90
41344;DHT22;27089;50.022;7.604;2022-09-01T14:26:35;23.30;99.90
41344;DHT22;27089;50.022;7.604;2022-09-01T14:29:03;23.60;99.90
41344;DHT22;27089;50.022;7.604;2022-09-01T14:31:32;23.70;99.90
41344;DHT22;27089;50.022;7.604;2022-09-01T14:34:00;23.80;99.90
41344;DHT22;27089;50.022;7.604;2022-09-01T14:36:28;23.90;99.90
41344;DHT22;27089;50.022;7.604;2022-09-01T14:38:56;24.00;99.90
41344;DHT22;27089;50.022;7.604;2022-09-01T14:41:24;24.00;99.90
41344;DHT22;27089;50.022;7.604;2022-09-01T14:43:52;24.10;99.90
41344;DHT22;27089;50.022;7.604;2022-09-01T14:46:20;24.00;99.90
41344;DHT22;27089;50.022;7.604;2022-09-01T14:48:48;23.90;99.90
41344;DHT22;27089;50.022;7.604;2022-09-01T14:51:20;23.60;99.90
41344;DHT22;27089;50.022;7.604;2022-09-01T14:53:49;23.30;99.90
41344;DHT22;27089;50.022;7.604;2022-09-01T14:56:16;23.20;99.90
41344;DHT22;27089;50.022;7.604;2022-09-01T14:58:44;23.30;99.90
41344;DHT22;27089;50.022;7.604;2022-09-01T15:01:12;23.30;99.90
41344;DHT22;27089;50.022;7.604;2022-09-01T15:03:40;23.40;99.90
41344;DHT22;27089;50.022;7.604;2022-09-01T15:06:10;23.40;99.90
41344;DHT22;27089;50.022;7.604;2022-09-01T15:08:38;23.50;99.90
41344;DHT22;27089;50.022;7.604;2022-09-01T15:11:07;23.50;99.90
41344;DHT22;27089;50.022;7.604;2022-09-01T15:13:36;23.50;99.90
41344;DHT22;27089;50.022;7.604;2022-09-01T15:16:04;23.50;99.90
41344;DHT22;27089;50.022;7.604;2022-09-01T15:18:31;23.40;99.90
41344;DHT22;27089;50.022;7.604;2022-09-01T15:20:58;23.20;99.90
41344;DHT22;27089;50.022;7.604;2022-09-01T15:23:26;23.10;99.90
41344;DHT22;27089;50.022;7.604;2022-09-01T15:25:54;22.90;99.90
41344;DHT22;27089;50.022;7.604;2022-09-01T15:28:22;22.80;99.90
41344;DHT22;27089;50.022;7.604;2022-09-01T15:30:50;22.60;99.90
41344;DHT22;27089;50.022;7.604;2022-09-01T15:33:19;22.50;99.90
41344;DHT22;27089;50.022;7.604;2022-09-01T15:35:46;22.50;99.90
41344;DHT22;27089;50.022;7.604;2022-09-01T15:38:14;22.60;99.90
41344;DHT22;27089;50.022;7.604;2022-09-01T15:40:43;22.60;99.90
41344;DHT22;27089;50.022;7.604;2022-09-01T15:43:10;22.60;99.90
41344;DHT22;27089;50.022;7.604;2022-09-01T15:45:37;22.60;99.90
41344;DHT22;27089;50.022;7.604;2022-09-01T15:48:06;22.70;99.90
41344;DHT22;27089;50.022;7.604;2022-09-01T15:50:33;22.80;99.90
41344;DHT22;27089;50.022;7.604;2022-09-01T15:53:01;22.80;99.90
41344;DHT22;27089;50.022;7.604;2022-09-01T15:55:38;22.80;99.90